Cemar Estates, Indiana
Current Conditions -  °F | °C
As of 6:53 PM on Sunday 21 Dec 2014 (Local Time) from KHUF Reporting Station
Clear Clear  
Wind Chill: 26°   Ceiling: Unl
Heat Index: 31°   Visibility: 10mi
Dew Point: 26°   Wind: 5mph
Humidity: 82%   Direction: 100°E
Pressure: 30.11"   Gusts: NA
Location:  39.543°N, 87.3153°W
Report Text: KHUF 212353Z 10004KT 10SM CLR M01/M03 A3011 RMK AO2 SLP202 T10061033 10039 21011 56009
Loading
Personal Weather Stations






























Interactive Weather Map New forecast layout! Learn more

10-Day Weather Forecast

Advertisements
Track Severe Weather on mobile